createdAt,value
2023-03-07T00:01:40.242Z,40.28
2023-03-07T00:04:06.791Z,42.47
2023-03-07T00:06:33.316Z,40.60
2023-03-07T00:09:02.068Z,45.55
2023-03-07T00:11:29.628Z,39.47
2023-03-07T00:13:56.251Z,37.55
2023-03-07T00:16:24.436Z,36.33
2023-03-07T00:18:51.334Z,35.58
2023-03-07T00:21:21.364Z,39.67
2023-03-07T00:23:49.020Z,40.78
2023-03-07T00:26:18.649Z,40.00
2023-03-07T00:28:50.417Z,33.47
2023-03-07T00:31:18.168Z,38.17
2023-03-07T00:33:44.987Z,30.95
2023-03-07T00:36:14.543Z,34.25
2023-03-07T00:38:42.315Z,34.88
2023-03-07T00:41:12.038Z,31.30
2023-03-07T00:43:38.888Z,36.42
2023-03-07T00:46:06.447Z,33.45
2023-03-07T00:48:35.132Z,35.83
2023-03-07T00:51:02.037Z,32.78
2023-03-07T00:53:28.743Z,30.27
2023-03-07T00:56:02.650Z,34.38
2023-03-07T00:58:31.349Z,34.08
2023-03-07T01:00:58.719Z,31.20
2023-03-07T01:03:26.152Z,27.23
2023-03-07T01:05:54.616Z,28.23
2023-03-07T01:08:22.298Z,28.58
2023-03-07T01:10:49.561Z,28.13
2023-03-07T01:13:18.376Z,28.23
2023-03-07T01:15:44.958Z,30.52
2023-03-07T01:18:11.670Z,27.58
2023-03-07T01:20:39.707Z,27.83
2023-03-07T01:23:06.466Z,25.17
2023-03-07T01:25:37.956Z,27.92
2023-03-07T01:28:04.627Z,27.38
2023-03-07T01:30:31.319Z,24.65
2023-03-07T01:32:59.365Z,29.35
2023-03-07T01:35:27.151Z,33.03
2023-03-07T01:37:54.702Z,28.95
2023-03-07T01:40:22.966Z,25.00
2023-03-07T01:42:49.823Z,23.50
2023-03-07T01:45:16.355Z,26.55
2023-03-07T01:47:46.370Z,28.17
2023-03-07T01:50:16.624Z,23.33
2023-03-07T01:52:47.571Z,27.92
2023-03-07T01:55:28.020Z,24.95
2023-03-07T01:57:56.717Z,24.05
2023-03-07T02:00:28.818Z,22.98
2023-03-07T02:03:10.185Z,23.02
2023-03-07T02:05:41.042Z,23.00
2023-03-07T02:08:11.569Z,21.90
2023-03-07T02:10:40.443Z,25.33
2023-03-07T02:13:07.772Z,21.77
2023-03-07T02:15:35.256Z,20.95
2023-03-07T02:18:02.584Z,24.08
2023-03-07T02:20:44.308Z,24.02
2023-03-07T02:23:26.359Z,21.48
2023-03-07T02:28:19.364Z,21.20
2023-03-07T02:31:03.120Z,23.08
2023-03-07T02:33:29.809Z,23.17
2023-03-07T02:36:00.482Z,20.55
2023-03-07T02:38:27.815Z,21.30
2023-03-07T02:40:55.536Z,21.55
2023-03-07T02:43:22.987Z,20.30
2023-03-07T02:45:49.680Z,22.35
2023-03-07T02:48:16.257Z,23.35
2023-03-07T02:50:42.824Z,24.02
2023-03-07T02:53:09.347Z,21.33
2023-03-07T02:55:36.063Z,25.52
2023-03-07T02:58:02.697Z,25.13
2023-03-07T03:00:29.321Z,20.52
2023-03-07T03:02:55.919Z,18.83
2023-03-07T03:05:22.511Z,20.25
2023-03-07T03:07:49.016Z,25.25
2023-03-07T03:10:16.187Z,23.67
2023-03-07T03:12:43.372Z,19.67
2023-03-07T03:15:10.866Z,20.10
2023-03-07T03:17:37.433Z,18.98
2023-03-07T03:20:07.586Z,16.73
2023-03-07T03:22:34.180Z,19.52
2023-03-07T03:25:00.721Z,21.17
2023-03-07T03:27:27.202Z,20.60
2023-03-07T03:29:54.990Z,21.83
2023-03-07T03:32:21.542Z,17.70
2023-03-07T03:34:48.063Z,16.25
2023-03-07T03:37:14.601Z,18.77
2023-03-07T03:39:41.280Z,18.65
2023-03-07T03:42:08.262Z,17.02
2023-03-07T03:44:34.819Z,19.10
2023-03-07T03:47:02.322Z,17.08
2023-03-07T03:49:28.864Z,17.98
2023-03-07T03:51:55.386Z,17.30
2023-03-07T03:54:21.932Z,19.77
2023-03-07T03:56:48.489Z,18.73
2023-03-07T03:59:15.194Z,19.48
2023-03-07T04:01:41.932Z,21.38
2023-03-07T04:04:08.537Z,16.40
2023-03-07T04:06:35.642Z,17.00
2023-03-07T04:09:04.820Z,20.10
2023-03-07T04:11:32.271Z,18.33
2023-03-07T04:13:59.440Z,16.30
2023-03-07T04:16:26.134Z,16.88
2023-03-07T04:18:52.847Z,17.45
2023-03-07T04:21:20.426Z,18.08
2023-03-07T04:23:49.664Z,16.77
2023-03-07T04:26:16.767Z,21.45
2023-03-07T04:28:43.976Z,19.63
2023-03-07T04:31:14.747Z,18.67
2023-03-07T04:33:42.302Z,21.23
2023-03-07T04:36:09.614Z,15.95
2023-03-07T04:38:38.202Z,20.75
2023-03-07T04:41:08.837Z,14.93
2023-03-07T04:43:35.363Z,17.42
2023-03-07T04:46:02.032Z,16.88
2023-03-07T04:48:28.605Z,16.98
2023-03-07T04:50:55.240Z,18.17
2023-03-07T04:53:22.464Z,15.38
2023-03-07T04:55:49.103Z,19.85
2023-03-07T04:58:15.686Z,16.85
2023-03-07T05:00:43.110Z,20.02
2023-03-07T05:03:11.334Z,17.70
2023-03-07T05:05:38.280Z,16.23
2023-03-07T05:08:05.829Z,17.02
2023-03-07T05:10:33.689Z,17.63
2023-03-07T05:13:00.737Z,20.80
2023-03-07T05:15:27.477Z,19.23
2023-03-07T05:17:54.055Z,17.80
2023-03-07T05:20:21.147Z,21.40
2023-03-07T05:22:47.805Z,16.75
2023-03-07T05:25:14.569Z,15.82
2023-03-07T05:27:41.260Z,21.25
2023-03-07T05:30:08.612Z,18.52
2023-03-07T05:32:35.244Z,22.70
2023-03-07T05:35:02.094Z,18.30
2023-03-07T05:37:28.640Z,20.42
2023-03-07T05:39:55.175Z,15.23
2023-03-07T05:42:21.735Z,19.48
2023-03-07T05:44:48.312Z,17.00
2023-03-07T05:47:14.879Z,18.63
2023-03-07T05:49:41.647Z,16.65
2023-03-07T05:52:08.380Z,15.65
2023-03-07T05:54:34.911Z,14.90
2023-03-07T05:57:01.454Z,14.65
2023-03-07T05:59:28.022Z,11.57
2023-03-07T06:01:54.560Z,16.55
2023-03-07T06:04:21.071Z,16.35
2023-03-07T06:06:47.584Z,18.20
2023-03-07T06:09:14.159Z,16.25
2023-03-07T06:11:40.749Z,17.42
2023-03-07T06:14:07.304Z,12.25
2023-03-07T06:16:33.868Z,17.23
2023-03-07T06:19:00.558Z,15.82
2023-03-07T06:21:27.105Z,16.85
2023-03-07T06:23:53.621Z,15.55
2023-03-07T06:26:20.155Z,17.70
2023-03-07T06:28:46.688Z,15.15
2023-03-07T06:31:15.777Z,17.17
2023-03-07T06:33:43.339Z,18.00
2023-03-07T06:36:12.887Z,18.55
2023-03-07T06:38:39.467Z,15.32
2023-03-07T06:41:06.512Z,20.63
2023-03-07T06:43:33.064Z,18.40
2023-03-07T06:46:00.207Z,16.98
2023-03-07T06:48:26.799Z,17.63
2023-03-07T06:50:53.485Z,14.82
2023-03-07T06:53:20.379Z,19.95
2023-03-07T06:55:50.963Z,16.35
2023-03-07T06:58:17.953Z,21.20
2023-03-07T07:00:45.124Z,16.55
2023-03-07T07:03:15.472Z,21.10
2023-03-07T07:05:42.077Z,15.55
2023-03-07T07:08:09.258Z,16.88
2023-03-07T07:10:36.132Z,19.75
2023-03-07T07:13:03.599Z,18.13
2023-03-07T07:15:31.260Z,16.23
2023-03-07T07:17:57.784Z,20.42
2023-03-07T07:20:24.380Z,20.60
2023-03-07T07:22:50.952Z,17.77
2023-03-07T07:25:17.706Z,18.60
2023-03-07T07:27:44.349Z,18.27
2023-03-07T07:30:11.459Z,18.50
2023-03-07T07:32:38.178Z,15.05
2023-03-07T07:35:05.471Z,15.23
2023-03-07T07:37:32.143Z,15.50
2023-03-07T07:39:58.680Z,19.25
2023-03-07T07:42:25.260Z,20.45
2023-03-07T07:44:51.813Z,16.10
2023-03-07T07:47:18.328Z,17.77
2023-03-07T07:49:44.851Z,18.40
2023-03-07T07:52:11.793Z,18.08
2023-03-07T07:54:38.328Z,19.08
2023-03-07T07:57:04.919Z,17.02
2023-03-07T07:59:34.138Z,18.85
2023-03-07T08:02:01.699Z,19.05
2023-03-07T08:04:28.344Z,18.08
2023-03-07T08:06:55.266Z,18.33
2023-03-07T08:09:21.821Z,17.55
2023-03-07T08:11:48.573Z,15.88
2023-03-07T08:14:15.204Z,21.42
2023-03-07T08:16:42.119Z,18.95
2023-03-07T08:19:08.843Z,20.77
2023-03-07T08:21:35.372Z,22.35
2023-03-07T08:24:02.507Z,17.02
2023-03-07T08:26:29.098Z,19.90
2023-03-07T08:28:55.811Z,19.42
2023-03-07T08:31:24.404Z,21.05
2023-03-07T08:33:51.473Z,23.83
2023-03-07T08:36:18.981Z,17.15
2023-03-07T08:38:51.638Z,21.35
2023-03-07T08:41:19.633Z,18.42
2023-03-07T08:43:46.224Z,16.33
2023-03-07T08:46:13.224Z,17.58
2023-03-07T08:48:40.191Z,27.42
2023-03-07T08:51:08.794Z,18.45
2023-03-07T08:53:35.468Z,15.38
2023-03-07T08:56:06.657Z,21.95
2023-03-07T08:58:33.235Z,18.58
2023-03-07T09:00:59.791Z,25.40
2023-03-07T09:03:26.340Z,20.33
2023-03-07T09:05:52.921Z,21.52
2023-03-07T09:08:19.479Z,19.48
2023-03-07T09:10:46.214Z,18.92
2023-03-07T09:13:14.123Z,18.27
2023-03-07T09:15:41.700Z,18.30
2023-03-07T09:18:09.072Z,16.55
2023-03-07T09:20:37.345Z,18.02
2023-03-07T09:23:04.232Z,17.38
2023-03-07T09:25:30.909Z,20.60
2023-03-07T09:27:57.457Z,18.95
2023-03-07T09:30:25.385Z,16.67
2023-03-07T09:32:52.257Z,19.90
2023-03-07T09:35:18.875Z,17.70
2023-03-07T09:37:45.456Z,20.20
2023-03-07T09:40:18.228Z,19.60
2023-03-07T09:43:11.476Z,20.92
2023-03-07T09:45:46.507Z,19.48
2023-03-07T09:48:25.405Z,20.55
2023-03-07T09:50:59.338Z,18.27
2023-03-07T09:53:55.995Z,18.52
2023-03-07T09:56:48.533Z,18.92
2023-03-07T09:59:25.721Z,17.88
2023-03-07T10:02:16.073Z,17.98
2023-03-07T10:04:51.994Z,18.00
2023-03-07T10:07:23.344Z,23.05
2023-03-07T10:09:55.611Z,19.73
2023-03-07T10:12:36.297Z,19.33
2023-03-07T10:15:35.429Z,22.33
2023-03-07T10:18:04.535Z,18.70
2023-03-07T10:20:53.459Z,17.20
2023-03-07T10:23:24.972Z,17.42
2023-03-07T10:26:02.301Z,20.25
2023-03-07T10:28:35.377Z,20.85
2023-03-07T10:31:25.921Z,20.23
2023-03-07T10:33:54.612Z,19.48
2023-03-07T10:36:36.602Z,16.52
2023-03-07T10:39:29.124Z,16.35
2023-03-07T10:41:56.933Z,20.00
2023-03-07T10:44:23.759Z,18.88
2023-03-07T10:46:57.537Z,23.55
2023-03-07T10:49:28.403Z,15.93
2023-03-07T10:52:03.776Z,16.20
2023-03-07T10:54:35.942Z,20.50
2023-03-07T10:57:08.009Z,20.48
2023-03-07T11:02:03.102Z,18.70
2023-03-07T11:04:44.322Z,19.20
2023-03-07T11:07:28.645Z,21.63
2023-03-07T11:09:57.311Z,20.17
2023-03-07T11:12:26.296Z,18.85
2023-03-07T11:14:54.408Z,18.20
2023-03-07T11:17:31.715Z,18.55
2023-03-07T11:19:58.355Z,17.35
2023-03-07T11:22:25.149Z,19.50
2023-03-07T11:24:56.842Z,19.70
2023-03-07T11:27:45.345Z,22.27
2023-03-07T11:30:35.725Z,22.50
2023-03-07T11:33:11.706Z,22.33
2023-03-07T11:35:52.499Z,23.52
2023-03-07T11:38:34.461Z,20.38
2023-03-07T11:41:09.689Z,21.58
2023-03-07T11:43:41.953Z,20.10
2023-03-07T11:47:10.296Z,19.30
2023-03-07T11:49:44.556Z,22.83
2023-03-07T11:52:35.781Z,21.30
2023-03-07T11:55:19.356Z,19.75
2023-03-07T11:58:23.430Z,22.42
2023-03-07T12:00:59.057Z,21.80
2023-03-07T12:03:47.400Z,20.17
2023-03-07T12:06:23.820Z,22.67
2023-03-07T12:08:56.845Z,20.73
2023-03-07T12:11:54.218Z,19.23
2023-03-07T12:14:42.051Z,19.88
2023-03-07T12:17:38.052Z,20.38
2023-03-07T12:20:13.739Z,21.30
2023-03-07T12:23:06.405Z,21.80
2023-03-07T12:25:41.600Z,20.92
2023-03-07T12:28:32.589Z,22.63
2023-03-07T12:31:15.241Z,20.83
2023-03-07T12:33:54.213Z,18.80
2023-03-07T12:36:20.706Z,23.55
2023-03-07T12:38:54.715Z,18.45
2023-03-07T12:41:43.255Z,18.20
2023-03-07T12:44:28.902Z,19.55
2023-03-07T12:47:03.578Z,17.77
2023-03-07T12:49:49.113Z,17.98
2023-03-07T12:52:28.782Z,17.17
2023-03-07T12:54:59.792Z,18.90
2023-03-07T12:57:36.182Z,19.98
2023-03-07T13:00:08.353Z,18.23
2023-03-07T13:02:43.628Z,20.98
2023-03-07T13:05:20.562Z,18.70
2023-03-07T13:07:49.262Z,18.10
2023-03-07T13:10:20.574Z,14.05
2023-03-07T13:12:48.462Z,14.38
2023-03-07T13:15:17.810Z,16.08
2023-03-07T13:17:44.578Z,16.15
2023-03-07T13:20:19.977Z,19.35
2023-03-07T13:22:46.521Z,16.90
2023-03-07T13:25:27.166Z,14.70
2023-03-07T13:27:59.356Z,15.25
2023-03-07T13:30:30.183Z,14.82
2023-03-07T13:33:07.145Z,13.40
2023-03-07T13:35:33.701Z,14.85
2023-03-07T13:38:00.309Z,16.17
2023-03-07T13:40:49.759Z,13.65
2023-03-07T13:43:19.360Z,16.58
2023-03-07T13:46:00.145Z,16.80
2023-03-07T13:48:26.698Z,16.52
2023-03-07T13:50:53.745Z,16.23
2023-03-07T13:57:18.573Z,16.40
2023-03-07T13:59:49.999Z,15.90
2023-03-07T14:02:18.403Z,20.50
2023-03-07T14:04:54.326Z,19.23
2023-03-07T14:07:26.617Z,16.15
2023-03-07T14:10:21.416Z,14.93
2023-03-07T14:13:18.496Z,15.60
2023-03-07T14:16:04.968Z,14.43
2023-03-07T14:19:09.456Z,12.82
2023-03-07T14:21:55.247Z,22.15
2023-03-07T14:24:49.555Z,17.23
2023-03-07T14:27:16.803Z,15.55
2023-03-07T14:29:54.668Z,16.02
2023-03-07T14:32:22.782Z,18.58
2023-03-07T14:34:49.356Z,13.88
2023-03-07T14:37:27.349Z,18.35
2023-03-07T14:40:09.309Z,18.42
2023-03-07T14:43:00.866Z,17.92
2023-03-07T14:45:40.016Z,20.20
2023-03-07T14:48:30.497Z,14.35
2023-03-07T14:51:05.955Z,15.80
2023-03-07T14:53:34.709Z,14.90
2023-03-07T14:56:01.606Z,15.32
2023-03-07T14:58:32.431Z,15.60
2023-03-07T15:00:58.970Z,16.50
2023-03-07T15:03:25.672Z,15.25
2023-03-07T15:05:55.768Z,17.90
2023-03-07T15:08:23.941Z,15.68
2023-03-07T15:11:22.579Z,15.88
2023-03-07T15:13:55.084Z,18.90
2023-03-07T15:16:26.895Z,14.48
2023-03-07T15:19:05.626Z,15.57
2023-03-07T15:21:40.333Z,14.10
2023-03-07T15:24:18.109Z,13.88
2023-03-07T15:26:53.329Z,14.13
2023-03-07T15:29:25.703Z,15.95
2023-03-07T15:32:02.850Z,13.48
2023-03-07T15:34:33.744Z,21.80
2023-03-07T15:37:23.351Z,16.00
2023-03-07T15:40:23.157Z,18.05
2023-03-07T15:42:55.707Z,21.08
2023-03-07T15:45:40.859Z,15.25
2023-03-07T15:48:34.884Z,18.58
2023-03-07T15:51:06.434Z,11.95
2023-03-07T15:53:41.459Z,16.10
2023-03-07T15:56:24.572Z,17.77
2023-03-07T15:58:56.515Z,12.70
2023-03-07T16:01:25.717Z,22.92
2023-03-07T16:04:01.179Z,14.38
2023-03-07T16:06:32.130Z,13.40
2023-03-07T16:08:59.095Z,18.38
2023-03-07T16:11:25.594Z,17.00
2023-03-07T16:13:52.144Z,15.43
2023-03-07T16:16:24.054Z,18.33
2023-03-07T16:18:51.870Z,15.50
2023-03-07T16:21:20.071Z,13.77
2023-03-07T16:23:47.239Z,15.35
2023-03-07T16:26:17.396Z,20.05
2023-03-07T16:28:44.399Z,16.35
2023-03-07T16:31:12.486Z,13.55
2023-03-07T16:33:39.397Z,16.05
2023-03-07T16:36:06.297Z,16.08
2023-03-07T16:38:32.859Z,16.35
2023-03-07T16:41:03.648Z,14.68
2023-03-07T16:43:38.299Z,16.27
2023-03-07T16:46:17.769Z,18.02
2023-03-07T16:48:45.075Z,19.58
2023-03-07T16:51:20.985Z,15.32
2023-03-07T16:53:49.327Z,17.85
2023-03-07T16:56:26.346Z,16.65
2023-03-07T16:58:53.582Z,23.13
2023-03-07T17:01:20.173Z,21.55
2023-03-07T17:03:46.721Z,14.55
2023-03-07T17:06:16.354Z,13.48
2023-03-07T17:08:44.415Z,14.98
2023-03-07T17:11:24.303Z,17.63
2023-03-07T17:13:57.509Z,19.40
2023-03-07T17:16:25.718Z,16.70
2023-03-07T17:18:52.459Z,18.80
2023-03-07T17:21:21.571Z,17.33
2023-03-07T17:23:49.302Z,20.60
2023-03-07T17:26:35.376Z,18.63
2023-03-07T17:29:07.031Z,16.40
2023-03-07T17:31:33.674Z,17.13
2023-03-07T17:34:00.195Z,15.18
2023-03-07T17:36:26.876Z,17.67
2023-03-07T17:38:53.420Z,16.27
2023-03-07T17:41:19.991Z,18.65
2023-03-07T17:43:46.530Z,14.45
2023-03-07T17:46:13.147Z,15.10
2023-03-07T17:48:39.710Z,18.02
2023-03-07T17:51:10.501Z,14.73
2023-03-07T17:53:38.333Z,18.25
2023-03-07T17:56:13.281Z,23.00
2023-03-07T17:58:41.050Z,22.73
2023-03-07T18:01:08.443Z,18.45
2023-03-07T18:03:35.292Z,18.35
2023-03-07T18:06:03.706Z,17.77
2023-03-07T18:08:30.732Z,18.98
2023-03-07T18:11:03.487Z,16.65
2023-03-07T18:13:30.084Z,16.33
2023-03-07T18:15:57.512Z,16.02
2023-03-07T18:18:24.515Z,15.23
2023-03-07T18:21:02.806Z,15.95
2023-03-07T18:23:29.417Z,17.13
2023-03-07T18:26:06.987Z,19.13
2023-03-07T18:28:35.056Z,14.38
2023-03-07T18:31:10.700Z,16.60
2023-03-07T18:33:38.296Z,16.13
2023-03-07T18:36:08.194Z,14.57
2023-03-07T18:38:34.996Z,15.40
2023-03-07T18:41:04.463Z,19.38
2023-03-07T18:43:30.967Z,15.57
2023-03-07T18:45:57.707Z,15.55
2023-03-07T18:48:24.252Z,17.40
2023-03-07T18:51:02.964Z,15.45
2023-03-07T18:53:29.892Z,20.20
2023-03-07T18:55:56.573Z,14.30
2023-03-07T18:58:23.405Z,13.05
2023-03-07T19:00:50.034Z,22.45
2023-03-07T19:03:16.688Z,13.77
2023-03-07T19:05:45.825Z,20.33
2023-03-07T19:08:13.396Z,18.17
2023-03-07T19:10:40.021Z,16.65
2023-03-07T19:13:07.317Z,15.07
2023-03-07T19:15:34.741Z,13.60
2023-03-07T19:18:01.768Z,16.58
2023-03-07T19:20:28.431Z,12.90
2023-03-07T19:22:54.970Z,16.85
2023-03-07T19:25:22.026Z,16.80
2023-03-07T19:27:48.590Z,13.70
2023-03-07T19:30:15.375Z,16.27
2023-03-07T19:32:41.975Z,15.65
2023-03-07T19:35:08.688Z,15.90
2023-03-07T19:37:36.633Z,16.02
2023-03-07T19:40:03.432Z,16.45
2023-03-07T19:42:29.970Z,13.68
2023-03-07T19:44:56.629Z,16.92
2023-03-07T19:47:23.346Z,16.77
2023-03-07T19:49:49.854Z,24.75
2023-03-07T19:52:16.524Z,17.13
2023-03-07T19:54:43.085Z,16.65
2023-03-07T19:57:11.750Z,17.88
2023-03-07T19:59:38.250Z,16.48
2023-03-07T20:02:05.107Z,12.73
2023-03-07T20:04:31.636Z,15.98
2023-03-07T20:06:58.180Z,13.40
2023-03-07T20:09:24.706Z,17.08
2023-03-07T20:11:51.725Z,14.45
2023-03-07T20:14:18.341Z,12.25
2023-03-07T20:16:44.887Z,14.73
2023-03-07T20:19:11.517Z,17.20
2023-03-07T20:21:38.155Z,14.45
2023-03-07T20:24:05.264Z,14.18
2023-03-07T20:26:34.906Z,13.15
2023-03-07T20:29:03.085Z,15.27
2023-03-07T20:31:30.119Z,13.98
2023-03-07T20:33:59.199Z,12.57
2023-03-07T20:36:31.493Z,15.07
2023-03-07T20:39:00.544Z,15.60
2023-03-07T20:41:32.060Z,16.10
2023-03-07T20:44:02.375Z,17.30
2023-03-07T20:46:30.437Z,11.73
2023-03-07T20:48:58.421Z,12.63
2023-03-07T20:51:27.879Z,11.18
2023-03-07T20:54:02.328Z,13.65
2023-03-07T20:56:31.265Z,11.88
2023-03-07T20:58:58.605Z,11.65
2023-03-07T21:01:27.852Z,12.63
2023-03-07T21:03:55.157Z,13.48
2023-03-07T21:06:22.215Z,14.43
2023-03-07T21:08:48.955Z,16.85
2023-03-07T21:11:19.210Z,16.27
2023-03-07T21:13:48.205Z,9.85
2023-03-07T21:16:18.022Z,12.07
2023-03-07T21:18:45.426Z,15.10
2023-03-07T21:21:17.793Z,14.52
2023-03-07T21:23:44.787Z,13.02
2023-03-07T21:26:14.280Z,11.85
2023-03-07T21:28:41.441Z,10.95
2023-03-07T21:31:13.493Z,15.32
2023-03-07T21:33:45.540Z,14.48
2023-03-07T21:38:41.971Z,13.90
2023-03-07T21:41:08.599Z,13.77
2023-03-07T21:43:35.488Z,12.95
2023-03-07T21:46:10.761Z,12.60
2023-03-07T21:48:37.389Z,17.80
2023-03-07T21:51:04.904Z,13.35
2023-03-07T21:53:32.023Z,11.98
2023-03-07T21:56:03.663Z,12.60
2023-03-07T21:58:31.064Z,13.02
2023-03-07T22:00:58.832Z,13.82
2023-03-07T22:03:27.282Z,12.55
2023-03-07T22:05:56.251Z,12.73
2023-03-07T22:08:23.686Z,13.80
2023-03-07T22:11:00.539Z,16.85
2023-03-07T22:13:28.264Z,10.65
2023-03-07T22:15:59.597Z,11.80
2023-03-07T22:18:26.592Z,13.50
2023-03-07T22:20:53.237Z,11.38
2023-03-07T22:23:19.865Z,14.45
2023-03-07T22:25:46.413Z,14.57
2023-03-07T22:28:16.589Z,15.25
2023-03-07T22:30:43.212Z,13.30
2023-03-07T22:33:09.777Z,15.50
2023-03-07T22:35:36.402Z,15.63
2023-03-07T22:38:03.014Z,19.15
2023-03-07T22:40:29.510Z,12.15
2023-03-07T22:42:56.066Z,12.32
2023-03-07T22:45:22.578Z,12.35
2023-03-07T22:47:49.088Z,10.90
2023-03-07T22:50:15.947Z,13.00
2023-03-07T22:52:42.466Z,13.48
2023-03-07T22:55:09.354Z,11.27
2023-03-07T22:57:35.910Z,14.05
2023-03-07T23:00:03.056Z,13.52
2023-03-07T23:02:29.585Z,11.48
2023-03-07T23:04:56.111Z,11.65
2023-03-07T23:07:22.717Z,10.85
2023-03-07T23:09:49.293Z,12.70
2023-03-07T23:12:15.917Z,11.90
2023-03-07T23:14:42.455Z,13.48
2023-03-07T23:17:09.225Z,13.20
2023-03-07T23:19:35.755Z,12.13
2023-03-07T23:22:02.261Z,12.55
2023-03-07T23:24:28.800Z,12.13
2023-03-07T23:26:55.396Z,13.05
2023-03-07T23:29:22.463Z,11.82
2023-03-07T23:31:49.182Z,11.45
2023-03-07T23:34:18.762Z,12.88
2023-03-07T23:36:46.002Z,15.40
2023-03-07T23:39:12.911Z,12.00
2023-03-07T23:41:39.824Z,13.27
2023-03-07T23:44:06.387Z,9.68
2023-03-07T23:46:33.109Z,16.55
2023-03-07T23:48:59.710Z,12.77
2023-03-07T23:51:26.782Z,13.55
2023-03-07T23:53:53.411Z,13.20
2023-03-07T23:56:19.997Z,17.77
2023-03-07T23:58:52.929Z,12.07
